createdAt,value
2023-02-28T00:04:10.440Z,3.45
2023-02-28T00:09:12.337Z,6.40
2023-02-28T00:14:14.174Z,5.95
2023-02-28T00:19:15.967Z,9.98
2023-02-28T00:24:17.847Z,9.70
2023-02-28T00:29:19.687Z,7.82
2023-02-28T00:34:21.733Z,10.18
2023-02-28T00:39:23.967Z,10.73
2023-02-28T00:44:25.779Z,7.63
2023-02-28T00:49:29.504Z,9.98
2023-02-28T00:54:31.374Z,7.05
2023-02-28T00:59:33.232Z,6.07
2023-02-28T01:04:36.532Z,5.05
2023-02-28T01:09:38.424Z,8.50
2023-02-28T01:14:40.396Z,8.55
2023-02-28T01:19:42.247Z,8.90
2023-02-28T01:24:47.484Z,7.05
2023-02-28T01:29:52.247Z,15.13
2023-02-28T01:34:54.448Z,6.35
2023-02-28T01:39:58.820Z,8.77
2023-02-28T01:45:03.187Z,10.73
2023-02-28T01:50:13.590Z,6.57
2023-02-28T01:55:18.025Z,6.28
2023-02-28T02:00:24.851Z,8.20
2023-02-28T02:05:32.178Z,6.67
2023-02-28T02:10:37.752Z,9.13
2023-02-28T02:16:03.839Z,7.70
2023-02-28T02:21:16.468Z,7.70
2023-02-28T02:26:24.566Z,14.40
2023-02-28T02:31:44.808Z,9.13
2023-02-28T02:36:54.525Z,7.47
2023-02-28T02:41:59.541Z,10.95
2023-02-28T02:47:15.826Z,6.18
2023-02-28T02:52:22.592Z,5.88
2023-02-28T02:57:31.508Z,7.22
2023-02-28T03:02:35.813Z,12.02
2023-02-28T03:07:37.616Z,8.15
2023-02-28T03:12:55.290Z,12.25
2023-02-28T03:18:10.871Z,8.77
2023-02-28T03:23:29.740Z,12.85
2023-02-28T03:29:04.713Z,8.95
2023-02-28T03:34:15.470Z,8.55
2023-02-28T03:39:26.516Z,15.60
2023-02-28T03:44:40.212Z,9.95
2023-02-28T03:49:50.691Z,13.40
2023-02-28T03:54:57.537Z,9.25
2023-02-28T04:00:22.697Z,9.37
2023-02-28T04:05:25.182Z,14.55
2023-02-28T04:10:26.970Z,10.50
2023-02-28T04:15:29.429Z,11.88
2023-02-28T04:20:31.217Z,11.82
2023-02-28T04:25:32.951Z,11.40
2023-02-28T04:30:34.796Z,11.25
2023-02-28T04:35:36.684Z,10.93
2023-02-28T04:40:38.573Z,11.57
2023-02-28T04:45:40.496Z,16.88
2023-02-28T04:50:42.547Z,9.93
2023-02-28T04:55:44.941Z,13.23
2023-02-28T05:00:46.809Z,11.20
2023-02-28T05:05:49.482Z,14.95
2023-02-28T05:10:51.237Z,8.90
2023-02-28T05:15:53.094Z,10.82
2023-02-28T05:20:54.875Z,14.00
2023-02-28T05:25:57.293Z,15.63
2023-02-28T05:30:59.136Z,15.63
2023-02-28T05:36:01.007Z,12.85
2023-02-28T05:41:09.710Z,10.85
2023-02-28T05:46:13.532Z,10.57
2023-02-28T05:51:16.273Z,20.63
2023-02-28T05:56:18.233Z,14.43
2023-02-28T06:01:40.677Z,18.38
2023-02-28T06:06:42.591Z,18.48
2023-02-28T06:11:44.603Z,12.00
2023-02-28T06:16:47.309Z,11.93
2023-02-28T06:21:53.412Z,15.82
2023-02-28T06:26:55.160Z,16.33
2023-02-28T06:31:57.019Z,12.27
2023-02-28T06:37:03.256Z,21.50
2023-02-28T06:42:05.256Z,13.75
2023-02-28T06:47:07.587Z,13.05
2023-02-28T06:52:10.952Z,12.32
2023-02-28T06:57:12.782Z,11.52
2023-02-28T07:02:14.715Z,16.67
2023-02-28T07:07:16.681Z,15.13
2023-02-28T07:12:19.053Z,11.80
2023-02-28T07:17:20.881Z,15.40
2023-02-28T07:22:23.041Z,17.42
2023-02-28T07:27:26.659Z,15.90
2023-02-28T07:32:29.328Z,15.07
2023-02-28T07:37:32.807Z,14.55
2023-02-28T07:42:35.202Z,15.48
2023-02-28T07:47:40.076Z,15.75
2023-02-28T07:52:42.650Z,20.65
2023-02-28T07:57:44.617Z,14.13
2023-02-28T08:02:46.667Z,12.77
2023-02-28T08:07:52.581Z,21.02
2023-02-28T08:12:54.427Z,20.08
2023-02-28T08:17:57.340Z,12.98
2023-02-28T08:22:59.082Z,17.95
2023-02-28T08:28:00.935Z,11.13
2023-02-28T08:33:03.032Z,12.05
2023-02-28T08:38:04.904Z,18.27
2023-02-28T08:43:06.768Z,15.00
2023-02-28T08:48:08.808Z,15.88
2023-02-28T08:53:10.709Z,16.55
2023-02-28T08:58:12.563Z,11.82
2023-02-28T09:03:14.426Z,10.50
2023-02-28T09:08:16.171Z,17.85
2023-02-28T09:13:18.456Z,19.83
2023-02-28T09:18:20.924Z,12.00
2023-02-28T09:23:23.133Z,10.93
2023-02-28T09:28:25.611Z,13.63
2023-02-28T09:33:27.897Z,14.10
2023-02-28T09:38:29.760Z,9.80
2023-02-28T09:43:39.959Z,15.88
2023-02-28T09:48:47.152Z,11.35
2023-02-28T09:53:53.401Z,12.10
2023-02-28T09:59:11.199Z,11.75
2023-02-28T10:04:22.081Z,11.50
2023-02-28T10:09:31.587Z,13.63
2023-02-28T10:14:35.582Z,12.38
2023-02-28T10:19:40.372Z,12.23
2023-02-28T10:24:48.204Z,10.02
2023-02-28T10:35:22.729Z,15.50
2023-02-28T10:40:24.599Z,9.75
2023-02-28T10:45:29.351Z,9.50
2023-02-28T10:50:45.516Z,12.52
2023-02-28T10:56:02.138Z,15.23
2023-02-28T11:01:04.112Z,13.13
2023-02-28T11:06:17.163Z,9.25
2023-02-28T11:11:20.172Z,15.93
2023-02-28T11:16:23.424Z,14.90
2023-02-28T11:21:34.767Z,13.07
2023-02-28T11:26:43.523Z,10.10
2023-02-28T11:31:58.934Z,13.93
2023-02-28T11:37:05.974Z,11.75
2023-02-28T11:42:42.813Z,8.63
2023-02-28T11:47:44.623Z,9.98
2023-02-28T11:53:11.720Z,10.48
2023-02-28T11:58:35.132Z,13.65
2023-02-28T12:03:50.107Z,12.35
2023-02-28T12:09:28.750Z,10.45
2023-02-28T12:14:45.743Z,12.68
2023-02-28T12:20:13.868Z,9.50
2023-02-28T12:25:42.017Z,11.23
2023-02-28T12:31:24.649Z,11.32
2023-02-28T12:36:28.441Z,9.35
2023-02-28T12:41:56.625Z,10.00
2023-02-28T12:47:05.896Z,11.75
2023-02-28T12:52:12.094Z,12.10
2023-02-28T12:57:37.496Z,16.17
2023-02-28T13:02:42.316Z,11.68
2023-02-28T13:08:05.622Z,9.63
2023-02-28T13:13:07.924Z,23.00
2023-02-28T13:18:40.675Z,13.73
2023-02-28T13:24:00.263Z,12.50
2023-02-28T13:29:25.610Z,11.85
2023-02-28T13:34:28.000Z,16.38
2023-02-28T13:39:36.378Z,13.32
2023-02-28T13:45:07.325Z,12.73
2023-02-28T13:50:27.149Z,13.20
2023-02-28T13:55:33.627Z,11.98
2023-02-28T14:01:05.837Z,11.48
2023-02-28T14:06:33.641Z,16.45
2023-02-28T14:11:39.315Z,17.63
2023-02-28T14:16:45.800Z,12.45
2023-02-28T14:22:05.253Z,14.65
2023-02-28T14:27:12.672Z,12.93
2023-02-28T14:32:36.365Z,15.43
2023-02-28T14:37:42.775Z,16.40
2023-02-28T14:42:56.847Z,15.38
2023-02-28T14:48:03.726Z,20.80
2023-02-28T14:53:17.049Z,13.87
2023-02-28T14:58:27.173Z,18.30
2023-02-28T15:03:32.239Z,14.18
2023-02-28T15:08:37.372Z,14.43
2023-02-28T15:13:42.518Z,12.98
2023-02-28T15:18:53.801Z,17.45
2023-02-28T15:24:06.151Z,14.57
2023-02-28T15:29:14.929Z,13.88
2023-02-28T15:34:36.993Z,13.63
2023-02-28T15:39:45.601Z,15.63
2023-02-28T15:44:47.917Z,13.13
2023-02-28T15:49:56.560Z,18.35
2023-02-28T15:55:13.812Z,11.77
2023-02-28T16:00:20.284Z,20.70
2023-02-28T16:05:33.122Z,15.93
2023-02-28T16:10:35.340Z,16.55
2023-02-28T16:15:43.427Z,17.60
2023-02-28T16:20:45.847Z,17.75
2023-02-28T16:25:47.792Z,13.48
2023-02-28T16:30:53.158Z,16.70
2023-02-28T16:35:55.118Z,18.52
2023-02-28T16:41:00.671Z,20.73
2023-02-28T16:46:04.770Z,15.60
2023-02-28T16:51:06.635Z,14.48
2023-02-28T16:56:17.372Z,17.77
2023-02-28T17:01:23.020Z,20.48
2023-02-28T17:06:29.129Z,33.20
2023-02-28T17:11:31.849Z,34.50
2023-02-28T17:16:37.227Z,37.88
2023-02-28T17:21:40.735Z,46.95
2023-02-28T17:26:43.926Z,43.00
2023-02-28T17:31:46.373Z,46.55
2023-02-28T17:36:50.619Z,63.67
2023-02-28T17:41:53.412Z,47.65
2023-02-28T17:46:57.013Z,31.20
2023-02-28T17:51:58.921Z,41.97
2023-02-28T17:57:01.186Z,31.00
2023-02-28T18:02:05.095Z,33.83
2023-02-28T18:07:10.310Z,33.53
2023-02-28T18:12:12.349Z,39.92
2023-02-28T18:17:14.398Z,45.47
2023-02-28T18:22:16.872Z,57.20
2023-02-28T18:27:18.894Z,41.33
2023-02-28T18:32:21.195Z,37.13
2023-02-28T18:37:23.186Z,24.63
2023-02-28T18:42:25.601Z,25.92
2023-02-28T18:47:27.673Z,25.25
2023-02-28T18:52:29.646Z,31.90
2023-02-28T18:57:31.506Z,25.42
2023-02-28T19:02:33.452Z,35.25
2023-02-28T19:07:36.219Z,26.77
2023-02-28T19:12:39.466Z,24.88
2023-02-28T19:17:41.790Z,38.85
2023-02-28T19:22:44.638Z,264.45
2023-02-28T19:27:46.621Z,245.30
2023-02-28T19:32:49.196Z,195.80
2023-02-28T19:37:52.891Z,69.63
2023-02-28T19:42:54.723Z,46.17
2023-02-28T19:47:56.717Z,40.65
2023-02-28T19:53:00.431Z,59.30
2023-02-28T19:58:02.544Z,71.00
2023-02-28T20:03:04.438Z,50.40
2023-02-28T20:08:07.620Z,37.45
2023-02-28T20:13:09.769Z,41.08
2023-02-28T20:18:11.961Z,50.22
2023-02-28T20:23:13.837Z,46.00
2023-02-28T20:28:15.694Z,36.38
2023-02-28T20:33:19.103Z,29.80
2023-02-28T20:38:21.117Z,30.30
2023-02-28T20:43:23.815Z,23.05
2023-02-28T20:48:25.991Z,26.90
2023-02-28T20:53:28.628Z,21.67
2023-02-28T20:58:33.614Z,29.80
2023-02-28T21:03:36.430Z,30.35
2023-02-28T21:08:39.502Z,20.60
2023-02-28T21:13:43.149Z,21.73
2023-02-28T21:18:46.221Z,26.50
2023-02-28T21:23:50.565Z,20.33
2023-02-28T21:28:55.401Z,22.77
2023-02-28T21:33:58.820Z,20.73
2023-02-28T21:39:17.271Z,23.10
2023-02-28T21:44:19.585Z,26.05
2023-02-28T21:49:24.518Z,25.90
2023-02-28T21:54:26.560Z,22.40
2023-02-28T21:59:28.435Z,22.27
2023-02-28T22:04:30.322Z,20.42
2023-02-28T22:09:32.519Z,22.58
2023-02-28T22:14:34.350Z,16.10
2023-02-28T22:19:36.867Z,35.00
2023-02-28T22:24:38.714Z,29.45
2023-02-28T22:29:40.538Z,26.65
2023-02-28T22:34:42.452Z,26.55
2023-02-28T22:39:45.766Z,33.92
2023-02-28T22:44:51.061Z,30.73
2023-02-28T22:49:52.809Z,30.38
2023-02-28T22:54:54.525Z,23.42
2023-02-28T22:59:56.430Z,28.60
2023-02-28T23:04:58.187Z,36.65
2023-02-28T23:09:59.984Z,25.38
2023-02-28T23:15:02.035Z,24.35
2023-02-28T23:20:04.016Z,24.50
2023-02-28T23:25:06.505Z,21.63
2023-02-28T23:30:10.463Z,22.20
2023-02-28T23:35:12.483Z,28.20
2023-02-28T23:40:14.971Z,22.25
2023-02-28T23:45:18.453Z,29.25
2023-02-28T23:50:20.311Z,24.80
2023-02-28T23:55:22.187Z,25.63
